Time;durP1;ratioP1;P1;durP2;ratioP2;P2;SDS_P1;SDS_P2;PMS_P1;PMS_P2;Temp;Humidity;BMP_temperature;BMP_pressure;BME280_temperature;BME280_humidity;BME280_pressure;Samples;Min_cycle;Max_cycle;Signal;HPM_P1;HPM_P2
2022/06/19 00:01:56;;;;;;;15.63;8.60;;;;;;;;;;4987918;28;20461;-64
2022/06/19 00:04:22;;;;;;;15.80;8.88;;;;;;;;;;4989708;28;20033;-63
2022/06/19 00:06:48;;;;;;;16.05;8.25;;;;;;;;;;4989608;28;20014;-63
2022/06/19 00:09:14;;;;;;;15.52;8.40;;;;;;;;;;4987666;28;20038;-63
2022/06/19 00:11:40;;;;;;;14.95;8.60;;;;;;;;;;4990058;28;20038;-63
2022/06/19 00:14:07;;;;;;;15.77;8.55;;;;;;;;;;4989660;28;20395;-64
2022/06/19 00:16:33;;;;;;;14.98;7.97;;;;;;;;;;4988047;28;20034;-64
2022/06/19 00:18:59;;;;;;;16.58;8.80;;;;;;;;;;4989112;28;20630;-63
2022/06/19 00:21:25;;;;;;;15.90;8.38;;;;;;;;;;4989557;28;20069;-64
2022/06/19 00:23:51;;;;;;;19.55;8.93;;;;;;;;;;4989772;28;20054;-63
2022/06/19 00:26:17;;;;;;;15.13;8.20;;;;;;;;;;4988431;28;20141;-62
2022/06/19 00:28:47;;;;;;;17.60;8.50;;;;;;;;;;4988540;28;20034;-63
2022/06/19 00:31:16;;;;;;;18.27;8.68;;;;;;;;;;4988004;28;20026;-64
2022/06/19 00:33:42;;;;;;;14.65;7.75;;;;;;;;;;4989363;28;20038;-63
2022/06/19 00:36:09;;;;;;;16.95;7.68;;;;;;;;;;4989249;28;20108;-63
2022/06/19 00:38:35;;;;;;;15.57;7.70;;;;;;;;;;4988445;28;20053;-64
2022/06/19 00:41:02;;;;;;;17.92;8.07;;;;;;;;;;4988809;28;20030;-63
2022/06/19 00:43:28;;;;;;;15.68;7.82;;;;;;;;;;4989049;28;20026;-65
2022/06/19 00:45:58;;;;;;;15.65;8.18;;;;;;;;;;4991821;28;20109;-64
2022/06/19 00:48:36;;;;;;;14.57;7.38;;;;;;;;;;4990234;28;20026;-64
2022/06/19 00:51:05;;;;;;;;;;;;;;;;;;4991257;28;20030;-64
2022/06/19 00:56:03;;;;;;;17.05;8.20;;;;;;;;;;5043856;23;20053;-61
2022/06/19 00:58:34;;;;;;;15.00;7.63;;;;;;;;;;5010641;28;20129;-61
2022/06/19 01:01:05;;;;;;;15.45;7.30;;;;;;;;;;5031272;28;20045;-61
2022/06/19 01:03:40;;;;;;;15.13;7.45;;;;;;;;;;5033994;28;20030;-61
2022/06/19 01:06:07;;;;;;;16.17;7.55;;;;;;;;;;5015287;28;20018;-62
2022/06/19 01:08:33;;;;;;;15.18;7.60;;;;;;;;;;5014376;28;20442;-61
2022/06/19 01:10:59;;;;;;;14.75;7.03;;;;;;;;;;5014873;28;20092;-61
2022/06/19 01:13:27;;;;;;;14.90;7.88;;;;;;;;;;5015041;28;20033;-61
2022/06/19 01:15:53;;;;;;;16.45;7.40;;;;;;;;;;5014816;28;20091;-61
2022/06/19 01:18:20;;;;;;;16.70;7.63;;;;;;;;;;5014293;28;20069;-62
2022/06/19 01:20:47;;;;;;;14.23;7.25;;;;;;;;;;5014715;28;20467;-61
2022/06/19 01:23:32;;;;;;;16.70;7.50;;;;;;;;;;4997117;28;20101;-61
2022/06/19 01:25:58;;;;;;;17.13;7.82;;;;;;;;;;4997091;28;20045;-61
2022/06/19 01:31:35;;;;;;;16.60;6.97;;;;;;;;;;4992815;28;20023;-61
2022/06/19 01:34:01;;;;;;;16.08;7.15;;;;;;;;;;4976382;28;20038;-61
2022/06/19 01:36:29;;;;;;;16.67;7.00;;;;;;;;;;5003129;28;20594;-61
2022/06/19 01:38:55;;;;;;;16.38;7.22;;;;;;;;;;5013962;28;20030;-61
2022/06/19 01:41:32;;;;;;;15.55;7.28;;;;;;;;;;5014379;28;20026;-62
2022/06/19 01:43:58;;;;;;;13.98;6.85;;;;;;;;;;5014267;28;20030;-62
2022/06/19 01:46:25;;;;;;;15.40;7.28;;;;;;;;;;5014673;28;20057;-61
2022/06/19 01:48:51;;;;;;;15.65;7.07;;;;;;;;;;5013695;28;20026;-62
2022/06/19 01:51:17;;;;;;;14.95;6.90;;;;;;;;;;5014452;28;20084;-62
2022/06/19 01:53:46;;;;;;;16.48;7.00;;;;;;;;;;5014352;28;20029;-62
2022/06/19 01:56:12;;;;;;;17.80;7.93;;;;;;;;;;5014081;28;20033;-61
2022/06/19 01:58:43;;;;;;;14.68;7.05;;;;;;;;;;5013467;28;20096;-60
2022/06/19 02:01:10;;;;;;;15.85;6.95;;;;;;;;;;5014142;28;20117;-62
2022/06/19 02:03:42;;;;;;;17.83;7.50;;;22.10;99.90;;;;;;5014007;28;20022;-62
2022/06/19 02:06:11;;;;;;;17.02;7.10;;;18.70;99.90;;;;;;5014032;28;20018;-62
2022/06/19 02:08:37;;;;;;;17.63;7.88;;;18.40;99.90;;;;;;5013225;28;20046;-62
2022/06/19 02:11:04;;;;;;;19.05;7.80;;;;;;;;;;5013837;28;20038;-62
2022/06/19 02:13:32;;;;;;;17.60;7.90;;;18.30;99.90;;;;;;5013908;28;20502;-61
2022/06/19 02:15:58;;;;;;;15.95;7.38;;;18.00;99.90;;;;;;5013817;28;20544;-61
2022/06/19 02:18:29;;;;;;;14.75;7.40;;;17.90;99.90;;;;;;5012979;28;20038;-62
2022/06/19 02:20:55;;;;;;;15.52;7.40;;;17.80;99.90;;;;;;5013687;28;20390;-61
2022/06/19 02:23:32;;;;;;;17.95;8.18;;;17.80;99.90;;;;;;5013743;28;20022;-61
2022/06/19 02:25:59;;;;;;;19.48;8.38;;;17.80;99.90;;;;;;5013612;28;20026;-61
2022/06/19 02:28:25;;;;;;;17.80;7.63;;;17.80;99.90;;;;;;4995163;28;20125;-59
2022/06/19 02:30:51;;;;;;;17.27;8.10;;;17.80;99.90;;;;;;5013683;28;20049;-62
2022/06/19 02:33:21;;;;;;;19.50;8.25;;;17.80;99.90;;;;;;5013649;28;20022;-61
2022/06/19 02:35:47;;;;;;;18.13;8.38;;;17.80;99.90;;;;;;5013485;28;20033;-61
2022/06/19 02:38:17;;;;;;;18.58;8.10;;;17.80;99.90;;;;;;4995074;28;20071;-62
2022/06/19 02:41:24;;;;;;;16.92;8.07;;;17.80;99.90;;;;;;5013550;28;20030;-61
2022/06/19 02:43:50;;;;;;;16.38;7.57;;;17.80;99.90;;;;;;4995838;28;20092;-61
2022/06/19 02:46:15;;;;;;;17.45;7.88;;;17.70;99.90;;;;;;5013269;28;20474;-61
2022/06/19 02:48:41;;;;;;;19.40;8.07;;;17.60;99.90;;;;;;5012946;28;20049;-61
2022/06/19 02:51:06;;;;;;;19.02;8.05;;;17.60;99.90;;;;;;5013263;28;20109;-62
2022/06/19 02:53:32;;;;;;;16.95;7.93;;;17.60;99.90;;;;;;5013340;28;20026;-62
2022/06/19 02:55:58;;;;;;;18.98;7.68;;;17.50;99.90;;;;;;5012977;28;20446;-63
2022/06/19 02:58:24;;;;;;;17.75;7.40;;;17.50;99.90;;;;;;4994622;28;20478;-61
2022/06/19 03:00:51;;;;;;;21.40;8.13;;;17.50;99.90;;;;;;5012954;28;20394;-62
2022/06/19 03:03:23;;;;;;;17.17;6.97;;;17.50;99.90;;;;;;5012936;28;20026;-61
2022/06/19 03:05:48;;;;;;;18.13;7.45;;;17.50;99.90;;;;;;5013072;28;20038;-62
2022/06/19 03:08:14;;;;;;;18.00;7.60;;;;;;;;;;5012169;28;20123;-61
2022/06/19 03:10:40;;;;;;;20.17;8.35;;;17.40;99.90;;;;;;5012941;28;20076;-63
2022/06/19 03:13:05;;;;;;;21.10;7.90;;;17.20;99.90;;;;;;5012875;28;20505;-62
2022/06/19 03:15:31;;;;;;;17.88;8.40;;;17.10;99.90;;;;;;5012577;28;20471;-62
2022/06/19 03:17:57;;;;;;;23.25;8.15;;;17.10;99.90;;;;;;5012033;28;20076;-62
2022/06/19 03:20:25;;;;;;;29.42;7.80;;;17.10;99.90;;;;;;5012714;28;20032;-58
2022/06/19 03:22:51;;;;;;;20.65;8.07;;;17.10;99.90;;;;;;5012267;28;20026;-63
2022/06/19 03:25:18;;;;;;;19.00;7.50;;;17.00;99.90;;;;;;4994773;28;20036;-62
2022/06/19 03:27:44;;;;;;;18.40;7.57;;;16.80;99.90;;;;;;5011972;28;20482;-61
2022/06/19 03:30:12;;;;;;;19.25;8.07;;;16.80;99.90;;;;;;5012394;28;20076;-61
2022/06/19 03:32:38;;;;;;;18.83;7.22;;;16.70;99.90;;;;;;5012205;28;20108;-62
2022/06/19 03:35:04;;;;;;;20.90;8.15;;;16.70;99.90;;;;;;5012792;28;20486;-61
2022/06/19 03:37:29;;;;;;;19.25;8.30;;;16.70;99.90;;;;;;5011986;28;20153;-60
2022/06/19 03:39:55;;;;;;;19.63;8.25;;;16.70;99.90;;;;;;5012409;28;20057;-61
2022/06/19 03:42:20;;;;;;;19.17;8.20;;;16.70;99.90;;;;;;5012196;28;20030;-62
2022/06/19 03:44:46;;;;;;;21.05;8.52;;;16.60;99.90;;;;;;5012288;28;20029;-61
2022/06/19 03:47:19;;;;;;;18.92;7.90;;;16.60;99.90;;;;;;5011646;28;20394;-61
2022/06/19 03:49:45;;;;;;;16.77;7.72;;;16.60;99.90;;;;;;5012448;28;20045;-61
2022/06/19 03:52:10;;;;;;;23.13;8.98;;;16.60;99.90;;;;;;5012225;28;20390;-61
2022/06/19 03:54:36;;;;;;;22.73;8.32;;;16.60;99.90;;;;;;5012433;28;20041;-62
2022/06/19 03:57:02;;;;;;;22.48;8.48;;;16.60;99.90;;;;;;5012119;28;20076;-61
2022/06/19 03:59:28;;;;;;;18.55;7.78;;;16.60;99.90;;;;;;5011391;28;20612;-60
2022/06/19 04:01:53;;;;;;;21.75;8.10;;;16.60;99.90;;;;;;5012040;28;20037;-62
2022/06/19 04:04:19;;;;;;;18.92;8.10;;;16.60;99.90;;;;;;5011847;28;20021;-60
2022/06/19 04:06:44;;;;;;;20.17;8.05;;;16.60;99.90;;;;;;5011869;28;20022;-61
2022/06/19 04:09:14;;;;;;;18.73;8.05;;;16.50;99.90;;;;;;5011289;28;20470;-61
2022/06/19 04:11:41;;;;;;;21.10;7.90;;;16.40;99.90;;;;;;5011634;28;20482;-61
2022/06/19 04:14:11;;;;;;;23.83;8.57;;;16.40;99.90;;;;;;5011677;28;20145;-59
2022/06/19 04:16:37;;;;;;;19.85;8.90;;;;;;;;;;5011750;28;20057;-61
2022/06/19 04:19:05;;;;;;;21.05;8.88;;;16.30;99.90;;;;;;5011253;28;20030;-61
2022/06/19 04:21:35;;;;;;;28.77;9.60;;;16.20;99.90;;;;;;5011711;28;20029;-61
2022/06/19 04:24:04;;;;;;;25.65;8.93;;;16.20;99.90;;;;;;4993950;28;20129;-61
2022/06/19 04:26:33;;;;;;;27.70;9.10;;;16.20;99.90;;;;;;5011281;28;20034;-59
2022/06/19 04:28:59;;;;;;;;;;;16.10;99.90;;;;;;4993652;28;20026;-59
2022/06/19 04:31:25;;;;;;;26.58;9.52;;;16.20;99.90;;;;;;4993756;28;19943;-60
2022/06/19 04:33:51;;;;;;;24.98;9.55;;;16.20;99.90;;;;;;5011564;28;20040;-60
2022/06/19 04:36:20;;;;;;;21.48;8.55;;;16.20;99.90;;;;;;5010551;28;20053;-60
2022/06/19 04:38:49;;;;;;;22.80;8.75;;;16.20;99.90;;;;;;5010607;28;20025;-60
2022/06/19 04:41:15;;;;;;;;;;;16.30;99.90;;;;;;5011691;28;20026;-61
2022/06/19 04:43:41;;;;;;;21.30;9.52;;;16.20;99.90;;;;;;5011485;28;19905;-60
2022/06/19 04:46:08;;;;;;;20.65;8.60;;;16.20;99.90;;;;;;4993739;28;20026;-62
2022/06/19 04:48:34;;;;;;;19.73;8.60;;;16.20;99.90;;;;;;4993352;28;20029;-60
2022/06/19 04:51:00;;;;;;;19.20;9.25;;;16.30;99.90;;;;;;5011382;28;20374;-61
2022/06/19 04:53:26;;;;;;;21.05;9.35;;;16.30;99.90;;;;;;5011211;28;20032;-60
2022/06/19 04:55:52;;;;;;;25.10;9.20;;;16.30;99.90;;;;;;5011317;28;20034;-60
2022/06/19 04:58:22;;;;;;;21.88;9.82;;;16.00;99.90;;;;;;5010919;28;20025;-59
2022/06/19 05:00:48;;;;;;;18.30;9.35;;;16.20;99.90;;;;;;5011678;28;20084;-60
2022/06/19 05:03:13;;;;;;;24.67;10.10;;;16.20;99.90;;;;;;5011250;28;20021;-59
2022/06/19 05:05:39;;;;;;;20.80;8.10;;;16.10;99.90;;;;;;5011548;28;20190;-61
2022/06/19 05:08:05;;;;;;;19.38;8.35;;;16.20;99.90;;;;;;5010302;28;20022;-60
2022/06/19 05:10:30;;;;;;;21.88;8.98;;;16.20;99.90;;;;;;5011315;28;20029;-60
2022/06/19 05:12:56;;;;;;;27.52;9.77;;;16.40;99.90;;;;;;5011263;28;20033;-60
2022/06/19 05:15:22;;;;;;;20.67;9.35;;;16.30;99.90;;;;;;5011354;28;20088;-59
2022/06/19 05:17:48;;;;;;;23.33;8.88;;;16.30;99.90;;;;;;4992728;28;20038;-60
2022/06/19 05:20:13;;;;;;;25.88;9.23;;;16.20;99.90;;;;;;5011241;28;20514;-59
2022/06/19 05:22:39;;;;;;;22.17;8.90;;;16.30;99.90;;;;;;5011185;28;20472;-59
2022/06/19 05:25:08;;;;;;;30.73;10.43;;;16.50;99.90;;;;;;5011034;28;20030;-61
2022/06/19 05:27:36;;;;;;;23.27;9.68;;;16.60;99.90;;;;;;4992618;28;20427;-60
2022/06/19 05:30:04;;;;;;;27.35;9.90;;;16.60;99.90;;;;;;5011245;28;20022;-59
2022/06/19 05:32:29;;;;;;;20.73;8.75;;;16.60;99.90;;;;;;5010815;28;20076;-60
2022/06/19 05:34:55;;;;;;;18.63;9.27;;;16.60;99.90;;;;;;5009433;28;20116;-61
2022/06/19 05:37:21;;;;;;;20.92;11.05;;;16.70;99.90;;;;;;5009843;28;20474;-60
2022/06/19 05:39:46;;;;;;;21.95;9.55;;;17.00;99.90;;;;;;5010715;28;20125;-61
2022/06/19 05:42:12;;;;;;;24.38;9.18;;;;;;;;;;5010459;28;20034;-58
2022/06/19 05:44:38;;;;;;;20.35;8.65;;;;;;;;;;5010904;28;20022;-60
2022/06/19 05:47:04;;;;;;;19.80;8.68;;;;;;;;;;5010921;28;20026;-60
2022/06/19 05:49:33;;;;;;;26.90;10.25;;;;;;;;;;5013576;28;20041;-58
2022/06/19 05:52:00;;;;;;;22.65;8.80;;;;;;;;;;5012134;28;20028;-60
2022/06/19 05:54:26;;;;;;;20.13;9.13;;;17.10;99.90;;;;;;5013968;28;20072;-60
2022/06/19 05:56:52;;;;;;;21.92;8.60;;;17.00;99.90;;;;;;5014097;28;20068;-60
2022/06/19 05:59:18;;;;;;;19.27;8.45;;;17.20;99.90;;;;;;5013466;28;20437;-61
2022/06/19 06:01:43;;;;;;;25.02;9.77;;;17.20;99.90;;;;;;5021902;28;20040;-60
2022/06/19 06:04:09;;;;;;;18.63;9.00;;;17.20;99.90;;;;;;5033108;28;20029;-60
2022/06/19 06:06:35;;;;;;;18.25;8.85;;;17.40;99.90;;;;;;5033762;28;20017;-60
2022/06/19 06:09:01;;;;;;;22.00;9.18;;;17.50;99.90;;;;;;5024388;28;20029;-61
2022/06/19 06:11:27;;;;;;;21.20;10.23;;;17.60;99.90;;;;;;5014158;28;20030;-60
2022/06/19 06:13:52;;;;;;;20.58;9.45;;;17.60;99.90;;;;;;4996367;28;20026;-61
2022/06/19 06:16:20;;;;;;;20.95;9.70;;;17.80;99.90;;;;;;5014061;28;20057;-61
2022/06/19 06:18:46;;;;;;;19.95;9.70;;;17.80;99.90;;;;;;5013022;28;20085;-61
2022/06/19 06:21:18;;;;;;;20.52;9.38;;;18.00;99.90;;;;;;5013685;28;20439;-61
2022/06/19 06:23:44;;;;;;;20.95;9.10;;;18.00;99.90;;;;;;5013993;28;20042;-62
2022/06/19 06:26:11;;;;;;;23.33;9.25;;;18.00;99.90;;;;;;5013513;28;20045;-62
2022/06/19 06:28:39;;;;;;;20.15;9.30;;;18.10;99.90;;;;;;5012949;28;20517;-61
2022/06/19 06:31:04;;;;;;;24.15;9.60;;;18.10;99.90;;;;;;5013785;28;20025;-61
2022/06/19 06:33:30;;;;;;;18.50;9.38;;;18.20;99.90;;;;;;5012458;28;20467;-61
2022/06/19 06:35:57;;;;;;;22.20;9.80;;;18.30;99.90;;;;;;5013459;28;20026;-61
2022/06/19 06:38:24;;;;;;;19.23;9.30;;;18.50;99.90;;;;;;5013028;28;20034;-61
2022/06/19 06:40:50;;;;;;;21.85;9.68;;;18.60;99.90;;;;;;5013578;28;20037;-61
2022/06/19 06:43:16;;;;;;;20.38;10.30;;;18.60;99.90;;;;;;5012266;28;20026;-61
2022/06/19 06:45:42;;;;;;;20.15;9.23;;;18.70;99.90;;;;;;5010471;28;20025;-61
2022/06/19 06:48:07;;;;;;;21.00;10.77;;;18.80;99.90;;;;;;5007350;28;20064;-62
2022/06/19 06:50:33;;;;;;;19.20;9.93;;;18.80;99.90;;;;;;5013613;28;20022;-60
2022/06/19 06:52:59;;;;;;;22.92;11.77;;;18.90;99.90;;;;;;5028333;28;20029;-60
2022/06/19 06:55:25;;;;;;;20.83;9.20;;;19.00;99.90;;;;;;5066483;23;20122;-62
2022/06/19 06:57:50;;;;;;;22.55;9.65;;;19.00;99.90;;;;;;5047145;28;20032;-62
2022/06/19 07:00:21;;;;;;;22.35;10.02;;;19.20;99.90;;;;;;5033617;28;20033;-62
2022/06/19 07:02:47;;;;;;;22.80;10.60;;;19.20;99.90;;;;;;5015934;28;20033;-62
2022/06/19 07:05:13;;;;;;;19.30;10.43;;;19.30;99.90;;;;;;5023614;28;20026;-61
2022/06/19 07:07:39;;;;;;;23.52;11.68;;;19.40;99.90;;;;;;5013159;28;20049;-62
2022/06/19 07:10:05;;;;;;;21.75;10.70;;;19.50;99.90;;;;;;5013995;28;20489;-62
2022/06/19 07:12:31;;;;;;;19.15;10.85;;;19.60;99.90;;;;;;4996500;28;20022;-63
2022/06/19 07:14:57;;;;;;;19.33;9.95;;;19.80;99.90;;;;;;5013593;28;20095;-63
2022/06/19 07:17:23;;;;;;;20.02;9.82;;;19.80;99.90;;;;;;4995311;28;20509;-61
2022/06/19 07:19:48;;;;;;;19.33;9.80;;;19.90;99.90;;;;;;5013738;28;20030;-58
2022/06/19 07:22:17;;;;;;;25.08;11.00;;;20.20;99.90;;;;;;4995966;28;20033;-61
2022/06/19 07:24:43;;;;;;;25.88;10.70;;;20.40;99.90;;;;;;5013585;28;20105;-61
2022/06/19 07:27:10;;;;;;;20.08;10.35;;;20.40;99.90;;;;;;5028360;28;20021;-61
2022/06/19 07:29:43;;;;;;;21.33;10.10;;;20.60;99.90;;;;;;5015345;28;20032;-61
2022/06/19 07:32:09;;;;;;;22.58;10.95;;;20.70;99.90;;;;;;5033546;28;20079;-61
2022/06/19 07:34:35;;;;;;;19.92;10.20;;;20.80;99.90;;;;;;5033120;28;20052;-62
2022/06/19 07:37:01;;;;;;;20.42;9.52;;;20.50;99.90;;;;;;5033094;28;20049;-60
2022/06/19 07:39:26;;;;;;;22.75;9.15;;;20.30;99.90;;;;;;5032780;28;20021;-63
2022/06/19 07:41:52;;;;;;;23.38;9.65;;;20.30;99.90;;;;;;5033153;28;20030;-61
2022/06/19 07:44:18;;;;;;;19.65;9.50;;;20.20;99.90;;;;;;5032698;28;20474;-61
2022/06/19 07:52:12;;;;;;;20.08;8.98;;;20.20;99.90;;;;;;5032904;28;20512;-61
2022/06/19 07:54:38;;;;;;;22.17;10.75;;;20.20;99.90;;;;;;5032486;28;20061;-61
2022/06/19 07:57:04;;;;;;;20.55;8.90;;;20.10;99.90;;;;;;5015111;28;20107;-61
2022/06/19 07:59:29;;;;;;;19.90;9.30;;;20.70;99.90;;;;;;5032024;28;20500;-61
2022/06/19 08:01:55;;;;;;;19.67;9.10;;;20.90;99.90;;;;;;5014924;28;20040;-61
2022/06/19 08:04:21;;;;;;;20.60;8.80;;;21.20;99.90;;;;;;5015161;28;20409;-61
2022/06/19 08:06:47;;;;;;;17.13;8.85;;;21.60;99.90;;;;;;5032697;28;20205;-61
2022/06/19 08:09:12;;;;;;;19.70;9.20;;;21.30;99.90;;;;;;5031726;28;20457;-62
2022/06/19 08:11:38;;;;;;;19.15;9.20;;;20.80;99.90;;;;;;5032609;28;20029;-62
2022/06/19 08:14:04;;;;;;;22.23;10.18;;;20.30;99.90;;;;;;5032360;28;20539;-62
2022/06/19 08:16:29;;;;;;;22.52;9.93;;;20.50;99.90;;;;;;5032198;28;20022;-60
2022/06/19 08:18:55;;;;;;;19.80;9.25;;;20.60;99.90;;;;;;5013807;28;20182;-62
2022/06/19 08:21:20;;;;;;;22.83;9.48;;;20.60;99.90;;;;;;5032074;28;20089;-62
2022/06/19 08:23:46;;;;;;;20.42;8.27;;;20.40;99.90;;;;;;5014631;28;20136;-62
2022/06/19 08:26:12;;;;;;;17.80;9.00;;;20.20;99.90;;;;;;5032311;28;20026;-62
2022/06/19 08:31:15;;;;;;;21.37;10.00;;;20.00;99.90;;;;;;5032362;28;20128;-62
2022/06/19 08:33:41;;;;;;;20.13;9.75;;;19.90;99.90;;;;;;5032149;28;20283;-62
2022/06/19 08:36:10;;;;;;;27.20;11.32;;;19.90;99.90;;;;;;5032030;28;20029;-61
2022/06/19 08:38:40;;;;;;;21.05;9.10;;;20.00;99.90;;;;;;5031180;28;20030;-62
2022/06/19 08:41:20;;;;;;;20.13;9.70;;;20.20;99.90;;;;;;5032079;28;20030;-62
2022/06/19 08:44:30;;;;;;;19.30;8.90;;;20.50;99.90;;;;;;5014267;28;20026;-63
2022/06/19 08:47:15;;;;;;;17.85;9.10;;;20.70;99.90;;;;;;5032115;28;20021;-62
2022/06/19 08:49:52;;;;;;;21.95;10.15;;;21.00;99.90;;;;;;5014179;28;20022;-62
2022/06/19 08:52:30;;;;;;;20.08;9.70;;;21.40;99.90;;;;;;5014223;28;20021;-62
2022/06/19 08:55:28;;;;;;;22.95;10.68;;;21.40;99.90;;;;;;5031812;28;20042;-62
2022/06/19 08:58:05;;;;;;;20.83;9.77;;;21.60;99.90;;;;;;4944418;28;20057;-61
2022/06/19 09:00:49;;;;;;;21.92;10.07;;;21.90;99.90;;;;;;5031834;28;20037;-62
2022/06/19 09:03:14;;;;;;;18.88;9.55;;;22.00;99.90;;;;;;5031649;28;20685;-61
2022/06/19 09:06:01;;;;;;;18.92;9.88;;;21.90;99.90;;;;;;5032015;28;20037;-61
2022/06/19 09:08:54;;;;;;;19.95;10.02;;;21.80;99.90;;;;;;5031087;28;20384;-60
2022/06/19 09:11:56;;;;;;;21.65;9.77;;;21.30;99.90;;;;;;5031981;28;20078;-61
2022/06/19 09:14:26;;;;;;;19.30;9.57;;;21.20;99.90;;;;;;4970372;28;20035;-61
2022/06/19 09:17:01;;;;;;;21.45;10.77;;;21.10;99.90;;;;;;5003552;28;20037;-58
2022/06/19 09:19:54;;;;;;;20.60;10.00;;;21.30;99.90;;;;;;5031079;28;20041;-60
2022/06/19 09:22:34;;;;;;;20.65;9.98;;;21.20;99.90;;;;;;5015617;28;20032;-62
2022/06/19 09:25:18;;;;;;;21.63;10.45;;;21.20;99.90;;;;;;5035605;28;20121;-61
2022/06/19 09:27:54;;;;;;;25.27;10.00;;;21.10;99.90;;;;;;5034783;28;20026;-62
2022/06/19 09:30:48;;;;;;;22.25;10.00;;;21.10;99.90;;;;;;5017842;28;20025;-63
2022/06/19 09:33:18;;;;;;;18.88;9.50;;;21.20;99.90;;;;;;5034993;28;20029;-62
2022/06/19 09:36:02;;;;;;;22.20;10.43;;;21.30;99.90;;;;;;5017509;28;20032;-62
2022/06/19 09:38:30;;;;;;;23.08;9.40;;;21.30;99.90;;;;;;5034783;28;20017;-63
2022/06/19 09:41:03;;;;;;;23.25;11.52;;;21.40;99.90;;;;;;5035124;28;20021;-63
2022/06/19 09:43:40;;;;;;;21.95;9.68;;;21.50;99.90;;;;;;5035269;28;20072;-61
2022/06/19 09:46:13;;;;;;;21.20;10.32;;;21.40;99.90;;;;;;5017500;28;20052;-61
2022/06/19 09:49:02;;;;;;;22.63;11.00;;;21.80;99.90;;;;;;5034361;28;20017;-61
2022/06/19 09:51:53;;;;;;;22.17;10.57;;;22.30;99.90;;;;;;5031687;28;20426;-61
2022/06/19 09:54:44;;;;;;;22.23;11.32;;;22.70;99.90;;;;;;5023651;28;20022;-63
2022/06/19 09:57:15;;;;;;;18.48;11.38;;;23.40;99.90;;;;;;5016496;28;20026;-60
2022/06/19 09:59:41;;;;;;;21.83;10.48;;;23.70;99.90;;;;;;5023935;28;20026;-62
2022/06/19 10:02:29;;;;;;;20.80;10.52;;;23.70;99.90;;;;;;5024606;28;20017;-62
2022/06/19 10:05:02;;;;;;;20.77;10.43;;;23.80;99.90;;;;;;5023085;28;20096;-60
2022/06/19 10:07:42;;;;;;;20.90;10.35;;;23.30;99.90;;;;;;5023613;28;20383;-63
2022/06/19 10:10:36;;;;;;;21.10;10.82;;;23.20;99.90;;;;;;5032783;28;20025;-62
2022/06/19 10:13:11;;;;;;;23.08;11.50;;;23.10;99.90;;;;;;5020963;28;20430;-62
2022/06/19 10:15:37;;;;;;;26.30;10.93;;;23.10;99.90;;;;;;5033768;28;20021;-63
2022/06/19 10:18:14;;;;;;;24.70;12.25;;;23.30;99.90;;;;;;5024317;28;20024;-61
2022/06/19 10:21:10;;;;;;;22.52;13.25;;;23.10;99.90;;;;;;5024739;28;20089;-58
2022/06/19 10:24:01;;;;;;;19.90;10.30;;;22.90;99.90;;;;;;5023604;28;20497;-61
2022/06/19 10:27:10;;;;;;;23.73;11.00;;;23.20;99.90;;;;;;5024757;28;20033;-60
2022/06/19 10:29:44;;;;;;;21.33;11.35;;;23.50;99.90;;;;;;5009845;28;20034;-62
2022/06/19 10:32:27;;;;;;;23.13;10.90;;;23.80;99.90;;;;;;5016240;28;20022;-60
2022/06/19 10:35:28;;;;;;;23.02;12.63;;;24.30;99.90;;;;;;5016900;28;20493;-63
2022/06/19 10:38:14;;;;;;;19.25;10.63;;;24.40;99.90;;;;;;4974136;28;20047;-61
2022/06/19 10:40:48;;;;;;;19.00;10.82;;;24.90;99.90;;;;;;5020429;28;20455;-61
2022/06/19 10:43:31;;;;;;;22.45;11.02;;;25.20;99.90;;;;;;4997920;28;20032;-61
2022/06/19 10:46:05;;;;;;;19.42;11.10;;;25.20;99.90;;;;;;5014286;28;20053;-61
2022/06/19 10:48:45;;;;;;;21.30;10.80;;;24.90;99.90;;;;;;5017928;28;20040;-61
2022/06/19 10:52:05;;;;;;;21.58;11.20;;;24.80;99.90;;;;;;5029188;28;20116;-61
2022/06/19 10:54:34;;;;;;;19.42;10.07;;;;;;;;;;4997163;28;20045;-61
2022/06/19 10:57:05;;;;;;;23.98;10.85;;;24.30;99.90;;;;;;5013854;28;20091;-62
2022/06/19 10:59:31;;;;;;;20.95;10.65;;;24.30;99.90;;;;;;5020247;28;20037;-60
2022/06/19 11:05:13;;;;;;;19.77;10.15;;;24.00;99.90;;;;;;5024601;28;20077;-61
2022/06/19 11:07:40;;;;;;;21.02;10.25;;;23.70;99.90;;;;;;5022563;28;20276;-60
2022/06/19 11:10:41;;;;;;;20.08;10.43;;;23.70;99.90;;;;;;5007012;28;20013;-61
2022/06/19 11:13:08;;;;;;;20.13;10.20;;;23.90;99.90;;;;;;4970302;28;20037;-61
2022/06/19 11:15:37;;;;;;;19.13;9.77;;;24.50;99.90;;;;;;5021972;28;20030;-61
2022/06/19 11:18:11;;;;;;;19.92;10.45;;;;;;;;;;5022628;28;20025;-60
2022/06/19 11:20:38;;;;;;;24.23;11.65;;;25.00;99.90;;;;;;5027376;28;20367;-61
2022/06/19 11:23:15;;;;;;;21.58;10.88;;;25.90;99.70;;;;;;5034629;28;20026;-61
2022/06/19 11:25:42;;;;;;;20.88;10.63;;;26.10;99.60;;;;;;5016791;28;20025;-62
2022/06/19 11:28:14;;;;;;;22.73;10.68;;;;;;;;;;5027597;28;20014;-60
2022/06/19 11:30:53;;;;;;;19.90;10.85;;;27.00;99.10;;;;;;5024367;28;20127;-62
2022/06/19 11:33:35;;;;;;;22.02;10.70;;;27.40;97.90;;;;;;5024186;28;20100;-60
2022/06/19 11:36:06;;;;;;;17.98;10.50;;;26.30;98.20;;;;;;5006049;28;20478;-61
2022/06/19 11:38:54;;;;;;;25.30;11.70;;;25.80;98.70;;;;;;5023130;28;20030;-60
2022/06/19 11:41:36;;;;;;;23.88;12.45;;;26.50;98.60;;;;;;5004526;28;20029;-59
2022/06/19 11:44:15;;;;;;;21.40;11.90;;;27.50;97.80;;;;;;5014271;28;20080;-61
2022/06/19 11:46:53;;;;;;;21.08;11.15;;;;;;;;;;5018918;28;20626;-63
2022/06/19 11:49:22;;;;;;;22.15;11.55;;;;;;;;;;5022116;28;20054;-62
2022/06/19 11:51:48;;;;;;;22.85;11.23;;;;;;;;;;5023581;28;20516;-61
2022/06/19 11:54:15;;;;;;;22.55;11.57;;;;;;;;;;5021335;28;20021;-61
2022/06/19 11:56:41;;;;;;;21.25;11.50;;;;;;;;;;5021991;28;20019;-61
2022/06/19 11:59:45;;;;;;;18.70;10.57;;;27.80;97.60;;;;;;5022257;28;20025;-62
2022/06/19 12:02:23;;;;;;;18.58;10.30;;;;;;;;;;5001536;28;20026;-62
2022/06/19 12:04:53;;;;;;;20.67;11.90;;;;;;;;;;5041252;28;20025;-58
2022/06/19 12:07:23;;;;;;;21.02;10.82;;;;;;;;;;4775549;28;10000594;-59
2022/06/19 12:10:04;;;;;;;22.92;11.32;;;;;;;;;;5025090;28;20242;-62
2022/06/19 12:12:31;;;;;;;19.38;10.70;;;;;;;;;;5019792;28;20623;-61
2022/06/19 12:15:00;;;;;;;19.50;10.83;;;;;;;;;;4991413;28;20034;-61
2022/06/19 12:17:32;;;;;;;22.13;10.77;;;;;;;;;;4999118;28;20695;-61
2022/06/19 12:20:17;;;;;;;18.52;10.10;;;;;;;;;;5018589;28;20029;-60
2022/06/19 12:22:47;;;;;;;21.58;10.45;;;;;;;;;;5018495;28;20036;-60
2022/06/19 12:25:18;;;;;;;19.30;10.50;;;;;;;;;;4999790;28;20049;-60
2022/06/19 12:27:48;;;;;;;20.90;10.68;;;;;;;;;;5017998;28;20025;-61
2022/06/19 12:30:19;;;;;;;18.35;10.02;;;;;;;;;;5019316;28;20021;-62
2022/06/19 12:32:46;;;;;;;18.13;9.90;;;;;;;;;;5000276;28;20815;-61
2022/06/19 12:35:31;;;;;;;16.20;9.70;;;;;;;;;;5017471;28;20025;-60
2022/06/19 12:37:57;;;;;;;18.77;11.02;;;;;;;;;;5020612;28;20119;-61
2022/06/19 12:40:26;;;;;;;21.95;10.95;;;;;;;;;;5020684;28;20037;-59
2022/06/19 12:42:59;;;;;;;20.10;11.43;;;;;;;;;;5022481;28;20072;-60
2022/06/19 12:45:48;;;;;;;21.70;11.85;;;;;;;;;;5021604;28;20033;-58
2022/06/19 12:48:17;;;;;;;20.13;11.00;;;;;;;;;;5020190;28;20036;-59
2022/06/19 12:50:43;;;;;;;20.25;11.20;;;;;;;;;;5022213;28;20025;-60
2022/06/19 12:53:27;;;;;;;20.65;11.00;;;;;;;;;;5024589;28;20025;-60
2022/06/19 12:55:58;;;;;;;18.35;10.57;;;;;;;;;;5042907;23;20038;-63
2022/06/19 12:58:45;;;;;;;20.20;10.63;;;;;;;;;;4981371;28;20045;-63
2022/06/19 13:01:34;;;;;;;19.73;10.63;;;;;;;;;;4982696;28;20034;-63
2022/06/19 13:04:04;;;;;;;20.52;10.48;;;;;;;;;;4982568;28;20026;-64
2022/06/19 13:06:33;;;;;;;19.77;10.35;;;;;;;;;;4982539;28;20018;-62
2022/06/19 13:09:16;;;;;;;18.50;10.70;;;;;;;;;;4980342;28;20026;-63
2022/06/19 13:11:42;;;;;;;18.58;10.93;;;;;;;;;;4974438;28;20082;-63
2022/06/19 13:14:26;;;;;;;20.45;11.07;;;;;;;;;;4982292;28;20407;-61
2022/06/19 13:17:02;;;;;;;17.48;10.73;;;;;;;;;;4982277;28;20097;-62
2022/06/19 13:19:52;;;;;;;19.33;11.45;;;;;;;;;;4981706;28;20105;-63
2022/06/19 13:22:18;;;;;;;17.25;10.60;;;;;;;;;;4977068;28;20161;-64
2022/06/19 13:24:56;;;;;;;21.80;11.15;;;;;;;;;;4980497;28;20098;-63
2022/06/19 13:27:22;;;;;;;;;;;;;;;;;;4979679;28;20098;-62
2022/06/19 13:30:00;;;;;;;18.00;9.90;;;;;;;;;;4979106;28;20057;-63
2022/06/19 13:32:29;;;;;;;17.20;10.18;;;;;;;;;;4978587;28;20097;-63
2022/06/19 13:34:59;;;;;;;18.02;10.00;;;;;;;;;;4971893;28;20115;-63
2022/06/19 13:37:25;;;;;;;20.42;9.80;;;;;;;;;;4971606;28;20027;-63
2022/06/19 13:40:03;;;;;;;19.90;10.50;;;;;;;;;;4938818;28;10000898;-62
2022/06/19 13:42:39;;;;;;;19.10;10.20;;;;;;;;;;4969382;28;20600;-62
2022/06/19 13:45:05;;;;;;;16.85;10.02;;;;;;;;;;4969020;28;20564;-62